createdAt,value
2023-03-12T00:02:00.605Z,100.00
2023-03-12T00:04:27.902Z,100.00
2023-03-12T00:06:54.709Z,100.00
2023-03-12T00:09:21.366Z,100.00
2023-03-12T00:11:48.065Z,100.00
2023-03-12T00:14:14.936Z,100.00
2023-03-12T00:16:43.460Z,100.00
2023-03-12T00:19:11.667Z,100.00
2023-03-12T00:21:38.934Z,100.00
2023-03-12T00:24:05.780Z,100.00
2023-03-12T00:26:32.426Z,100.00
2023-03-12T00:28:59.103Z,100.00
2023-03-12T00:31:29.628Z,100.00
2023-03-12T00:33:56.705Z,100.00
2023-03-12T00:36:28.275Z,100.00
2023-03-12T00:38:55.752Z,100.00
2023-03-12T00:41:23.112Z,100.00
2023-03-12T00:43:50.754Z,100.00
2023-03-12T00:46:17.869Z,100.00
2023-03-12T00:48:45.121Z,100.00
2023-03-12T00:51:11.881Z,100.00
2023-03-12T00:53:38.484Z,100.00
2023-03-12T00:56:05.980Z,100.00
2023-03-12T00:58:32.623Z,100.00
2023-03-12T01:00:59.365Z,100.00
2023-03-12T01:03:26.227Z,100.00
2023-03-12T01:05:55.680Z,100.00
2023-03-12T01:08:22.907Z,100.00
2023-03-12T01:10:49.984Z,100.00
2023-03-12T01:13:16.818Z,100.00
2023-03-12T01:15:43.519Z,100.00
2023-03-12T01:18:10.160Z,100.00
2023-03-12T01:20:36.779Z,100.00
2023-03-12T01:23:03.665Z,100.00
2023-03-12T01:25:30.311Z,100.00
2023-03-12T01:27:56.963Z,100.00
2023-03-12T01:30:23.786Z,100.00
2023-03-12T01:32:52.031Z,100.00
2023-03-12T01:35:18.862Z,100.00
2023-03-12T01:37:46.737Z,100.00
2023-03-12T01:40:18.656Z,100.00
2023-03-12T01:42:52.818Z,100.00
2023-03-12T01:46:11.059Z,100.00
2023-03-12T01:48:44.678Z,100.00
2023-03-12T01:51:14.113Z,100.00
2023-03-12T01:53:45.425Z,100.00
2023-03-12T01:56:13.172Z,100.00
2023-03-12T01:58:43.455Z,100.00
2023-03-12T02:01:10.304Z,100.00
2023-03-12T02:03:37.194Z,100.00
2023-03-12T02:06:07.379Z,100.00
2023-03-12T02:08:38.591Z,100.00
2023-03-12T02:11:05.421Z,100.00
2023-03-12T02:13:32.087Z,100.00
2023-03-12T02:15:58.813Z,100.00
2023-03-12T02:18:25.583Z,100.00
2023-03-12T02:21:08.501Z,100.00
2023-03-12T02:24:02.203Z,100.00
2023-03-12T02:26:30.414Z,100.00
2023-03-12T02:28:59.681Z,100.00
2023-03-12T02:31:28.880Z,100.00
2023-03-12T02:33:56.034Z,100.00
2023-03-12T02:36:22.845Z,100.00
2023-03-12T02:38:51.668Z,100.00
2023-03-12T02:41:21.449Z,100.00
2023-03-12T02:43:59.804Z,100.00
2023-03-12T02:46:26.887Z,100.00
2023-03-12T02:48:53.720Z,100.00
2023-03-12T02:51:20.424Z,100.00
2023-03-12T02:53:47.250Z,100.00
2023-03-12T02:56:13.894Z,100.00
2023-03-12T02:58:41.906Z,100.00
2023-03-12T03:01:08.542Z,100.00
2023-03-12T03:03:35.140Z,100.00
2023-03-12T03:06:01.787Z,100.00
2023-03-12T03:08:29.560Z,100.00
2023-03-12T03:10:56.227Z,100.00
2023-03-12T03:13:22.895Z,100.00
2023-03-12T03:15:49.585Z,100.00
2023-03-12T03:18:16.246Z,100.00
2023-03-12T03:20:44.609Z,100.00
2023-03-12T03:23:11.498Z,100.00
2023-03-12T03:25:38.299Z,100.00
2023-03-12T03:28:05.018Z,100.00
2023-03-12T03:30:32.455Z,100.00
2023-03-12T03:32:59.094Z,100.00
2023-03-12T03:35:25.740Z,100.00
2023-03-12T03:37:52.451Z,100.00
2023-03-12T03:40:19.292Z,100.00
2023-03-12T03:42:45.939Z,100.00
2023-03-12T03:45:12.590Z,100.00
2023-03-12T03:47:39.317Z,100.00
2023-03-12T03:50:06.819Z,100.00
2023-03-12T03:52:33.749Z,100.00
2023-03-12T03:55:00.427Z,100.00
2023-03-12T03:57:27.851Z,100.00
2023-03-12T03:59:54.691Z,100.00
2023-03-12T04:02:21.590Z,100.00
2023-03-12T04:04:48.241Z,100.00
2023-03-12T04:07:14.962Z,100.00
2023-03-12T04:09:41.633Z,100.00
2023-03-12T04:12:09.264Z,100.00
2023-03-12T04:14:39.638Z,100.00
2023-03-12T04:17:06.430Z,100.00
2023-03-12T04:19:33.025Z,100.00
2023-03-12T04:22:00.068Z,100.00
2023-03-12T04:24:26.711Z,100.00
2023-03-12T04:26:53.341Z,100.00
2023-03-12T04:29:20.061Z,100.00
2023-03-12T04:31:46.718Z,100.00
2023-03-12T04:34:14.625Z,100.00
2023-03-12T04:36:41.646Z,100.00
2023-03-12T04:39:08.422Z,100.00
2023-03-12T04:41:35.918Z,100.00
2023-03-12T04:44:03.766Z,100.00
2023-03-12T04:46:30.563Z,100.00
2023-03-12T04:48:58.168Z,100.00
2023-03-12T04:51:25.148Z,100.00
2023-03-12T04:53:51.956Z,100.00
2023-03-12T04:56:18.633Z,100.00
2023-03-12T04:58:45.737Z,100.00
2023-03-12T05:01:21.307Z,100.00
2023-03-12T05:03:47.927Z,100.00
2023-03-12T05:06:14.530Z,100.00
2023-03-12T05:08:41.320Z,100.00
2023-03-12T05:11:07.947Z,100.00
2023-03-12T05:13:34.611Z,100.00
2023-03-12T05:16:01.272Z,100.00
2023-03-12T05:18:28.014Z,100.00
2023-03-12T05:21:02.618Z,100.00
2023-03-12T05:23:30.156Z,100.00
2023-03-12T05:25:56.832Z,100.00
2023-03-12T05:28:27.879Z,100.00
2023-03-12T05:30:56.107Z,100.00
2023-03-12T05:33:22.729Z,100.00
2023-03-12T05:35:49.681Z,100.00
2023-03-12T05:38:16.590Z,100.00
2023-03-12T05:40:43.277Z,100.00
2023-03-12T05:43:09.892Z,100.00
2023-03-12T05:45:36.732Z,100.00
2023-03-12T05:48:03.591Z,100.00
2023-03-12T05:50:30.259Z,100.00
2023-03-12T05:52:56.887Z,100.00
2023-03-12T05:55:23.532Z,100.00
2023-03-12T05:57:50.311Z,100.00
2023-03-12T06:00:17.483Z,100.00
2023-03-12T06:02:44.177Z,100.00
2023-03-12T06:05:11.768Z,100.00
2023-03-12T06:07:38.406Z,100.00
2023-03-12T06:10:06.038Z,100.00
2023-03-12T06:12:32.682Z,100.00
2023-03-12T06:14:59.302Z,100.00
2023-03-12T06:17:28.704Z,100.00
2023-03-12T06:19:55.361Z,100.00
2023-03-12T06:22:22.116Z,100.00
2023-03-12T06:24:48.753Z,100.00
2023-03-12T06:27:16.402Z,100.00
2023-03-12T06:29:43.066Z,100.00
2023-03-12T06:32:09.686Z,100.00
2023-03-12T06:34:36.296Z,100.00
2023-03-12T06:37:02.948Z,100.00
2023-03-12T06:39:30.007Z,100.00
2023-03-12T06:41:56.800Z,100.00
2023-03-12T06:44:23.644Z,100.00
2023-03-12T06:46:50.709Z,100.00
2023-03-12T06:49:17.358Z,100.00
2023-03-12T06:51:44.004Z,100.00
2023-03-12T06:54:10.638Z,100.00
2023-03-12T06:56:38.097Z,100.00
2023-03-12T06:59:04.873Z,100.00
2023-03-12T07:01:31.603Z,100.00
2023-03-12T07:03:58.353Z,100.00
2023-03-12T07:06:25.238Z,100.00
2023-03-12T07:08:52.486Z,100.00
2023-03-12T07:11:19.128Z,100.00
2023-03-12T07:13:45.913Z,100.00
2023-03-12T07:16:12.632Z,100.00
2023-03-12T07:18:39.346Z,100.00
2023-03-12T07:21:06.255Z,100.00
2023-03-12T07:23:32.892Z,100.00
2023-03-12T07:25:59.554Z,100.00
2023-03-12T07:28:26.189Z,100.00
2023-03-12T07:30:52.858Z,100.00
2023-03-12T07:33:21.162Z,100.00
2023-03-12T07:35:51.013Z,100.00
2023-03-12T07:38:18.809Z,100.00
2023-03-12T07:40:45.601Z,100.00
2023-03-12T07:43:12.741Z,100.00
2023-03-12T07:45:39.842Z,100.00
2023-03-12T07:48:07.222Z,100.00
2023-03-12T07:50:34.945Z,100.00
2023-03-12T07:53:01.867Z,100.00
2023-03-12T07:55:28.599Z,100.00
2023-03-12T07:57:58.398Z,100.00
2023-03-12T08:00:26.575Z,100.00
2023-03-12T08:02:53.711Z,100.00
2023-03-12T08:05:24.715Z,100.00
2023-03-12T08:07:52.448Z,100.00
2023-03-12T08:10:19.808Z,100.00
2023-03-12T08:12:46.683Z,100.00
2023-03-12T08:15:13.523Z,100.00
2023-03-12T08:17:40.272Z,100.00
2023-03-12T08:20:10.366Z,100.00
2023-03-12T08:22:38.102Z,100.00
2023-03-12T08:25:05.668Z,100.00
2023-03-12T08:27:33.749Z,100.00
2023-03-12T08:30:00.413Z,100.00
2023-03-12T08:32:27.187Z,100.00
2023-03-12T08:34:54.025Z,97.18
2023-03-12T08:37:20.602Z,94.42
2023-03-12T08:39:47.201Z,96.42
2023-03-12T08:42:13.814Z,94.59
2023-03-12T08:44:40.411Z,91.96
2023-03-12T08:47:07.056Z,91.45
2023-03-12T08:49:33.839Z,88.91
2023-03-12T08:52:00.642Z,87.06
2023-03-12T08:54:27.263Z,87.18
2023-03-12T08:56:53.967Z,83.40
2023-03-12T08:59:22.335Z,83.33
2023-03-12T09:01:49.077Z,84.79
2023-03-12T09:04:16.217Z,80.33
2023-03-12T09:06:43.355Z,80.35
2023-03-12T09:09:10.133Z,80.72
2023-03-12T09:11:39.615Z,79.78
2023-03-12T09:16:52.858Z,79.65
2023-03-12T09:19:20.586Z,73.98
2023-03-12T09:21:47.203Z,73.24
2023-03-12T09:24:13.817Z,75.18
2023-03-12T09:26:40.414Z,77.11
2023-03-12T09:29:07.018Z,76.67
2023-03-12T09:31:34.673Z,76.57
2023-03-12T09:34:01.300Z,75.92
2023-03-12T09:36:28.274Z,76.52
2023-03-12T09:38:55.218Z,75.48
2023-03-12T09:41:25.373Z,75.53
2023-03-12T09:43:57.429Z,70.00
2023-03-12T09:46:33.344Z,74.14
2023-03-12T09:49:02.487Z,74.46
2023-03-12T09:51:34.754Z,74.03
2023-03-12T09:54:04.381Z,69.65
2023-03-12T09:56:31.475Z,71.99
2023-03-12T09:58:58.085Z,73.09
2023-03-12T10:01:46.580Z,73.00
2023-03-12T10:04:25.063Z,74.58
2023-03-12T10:07:23.826Z,75.43
2023-03-12T10:10:27.997Z,73.86
2023-03-12T10:13:01.683Z,73.31
2023-03-12T10:15:55.354Z,71.06
2023-03-12T10:18:48.402Z,70.10
2023-03-12T10:21:35.802Z,71.06
2023-03-12T10:24:11.819Z,72.79
2023-03-12T10:26:41.106Z,70.67
2023-03-12T10:29:17.884Z,71.39
2023-03-12T10:31:55.363Z,71.41
2023-03-12T10:34:37.692Z,71.51
2023-03-12T10:37:42.453Z,73.32
2023-03-12T10:40:34.220Z,72.60
2023-03-12T10:43:02.279Z,68.25
2023-03-12T10:46:02.390Z,65.32
2023-03-12T10:48:29.019Z,64.73
2023-03-12T10:51:01.852Z,65.48
2023-03-12T10:53:39.228Z,67.23
2023-03-12T10:56:17.286Z,69.07
2023-03-12T10:58:49.496Z,67.70
2023-03-12T11:01:29.392Z,68.48
2023-03-12T11:04:22.166Z,68.16
2023-03-12T11:07:21.532Z,68.19
2023-03-12T11:10:08.461Z,70.44
2023-03-12T11:12:37.134Z,69.14
2023-03-12T11:15:29.152Z,69.81
2023-03-12T11:18:24.077Z,67.96
2023-03-12T11:20:53.035Z,65.61
2023-03-12T11:23:30.568Z,67.60
2023-03-12T11:26:00.839Z,66.30
2023-03-12T11:28:43.234Z,65.86
2023-03-12T11:31:19.166Z,69.31
2023-03-12T11:33:45.869Z,65.92
2023-03-12T11:36:30.274Z,68.74
2023-03-12T11:39:13.595Z,65.75
2023-03-12T11:41:56.177Z,66.46
2023-03-12T11:44:28.987Z,69.48
2023-03-12T11:47:24.399Z,67.14
2023-03-12T11:50:12.336Z,67.61
2023-03-12T11:52:52.175Z,66.77
2023-03-12T11:55:46.836Z,64.86
2023-03-12T11:58:27.885Z,66.77
2023-03-12T12:01:10.147Z,65.34
2023-03-12T12:03:45.645Z,66.66
2023-03-12T12:06:21.348Z,64.88
2023-03-12T12:08:51.416Z,67.52
2023-03-12T12:11:48.200Z,66.64
2023-03-12T12:14:55.248Z,66.93
2023-03-12T12:17:27.720Z,67.75
2023-03-12T12:20:10.083Z,65.53
2023-03-12T12:23:12.745Z,66.98
2023-03-12T12:25:48.709Z,66.64
2023-03-12T12:28:49.287Z,65.88
2023-03-12T12:31:37.526Z,65.06
2023-03-12T12:34:29.014Z,65.48
2023-03-12T12:37:22.490Z,64.48
2023-03-12T12:40:05.196Z,64.24
2023-03-12T12:42:33.672Z,62.21
2023-03-12T12:45:02.389Z,63.07
2023-03-12T12:48:15.752Z,62.37
2023-03-12T12:50:42.718Z,64.28
2023-03-12T12:53:25.603Z,65.93
2023-03-12T12:56:01.546Z,64.55
2023-03-12T12:58:44.714Z,62.45
2023-03-12T13:01:11.837Z,63.33
2023-03-12T13:03:38.734Z,62.83
2023-03-12T13:06:06.837Z,59.02
2023-03-12T13:08:43.120Z,60.19
2023-03-12T13:11:20.032Z,59.80
2023-03-12T13:14:02.687Z,62.51
2023-03-12T13:16:42.589Z,64.81
2023-03-12T13:19:15.898Z,62.02
2023-03-12T13:21:47.411Z,58.48
2023-03-12T13:24:31.334Z,57.79
2023-03-12T13:27:23.702Z,58.37
2023-03-12T13:29:56.860Z,59.61
2023-03-12T13:32:35.776Z,59.03
2023-03-12T13:35:11.988Z,60.19
2023-03-12T13:37:52.155Z,59.21
2023-03-12T13:40:31.330Z,61.93
2023-03-12T13:43:17.180Z,60.37
2023-03-12T13:45:55.841Z,60.02
2023-03-12T13:48:22.896Z,59.33
2023-03-12T13:50:52.909Z,56.88
2023-03-12T13:53:38.678Z,60.99
2023-03-12T13:56:15.244Z,59.01
2023-03-12T13:58:55.173Z,57.97
2023-03-12T14:01:24.694Z,60.14
2023-03-12T14:03:58.568Z,61.77
2023-03-12T14:06:28.805Z,60.02
2023-03-12T14:09:10.795Z,60.26
2023-03-12T14:12:02.524Z,61.81
2023-03-12T14:15:06.522Z,58.03
2023-03-12T14:17:34.751Z,57.51
2023-03-12T14:20:16.021Z,58.31
2023-03-12T14:22:45.139Z,54.03
2023-03-12T14:25:22.476Z,56.24
2023-03-12T14:27:49.268Z,52.93
2023-03-12T14:30:21.568Z,53.45
2023-03-12T14:32:50.638Z,54.59
2023-03-12T14:35:31.213Z,53.46
2023-03-12T14:38:06.123Z,55.48
2023-03-12T14:40:40.112Z,56.43
2023-03-12T14:43:27.432Z,58.12
2023-03-12T14:45:58.926Z,55.69
2023-03-12T14:48:34.668Z,52.43
2023-03-12T14:51:03.548Z,54.36
2023-03-12T14:53:32.897Z,52.87
2023-03-12T14:56:24.650Z,50.81
2023-03-12T14:58:52.325Z,51.33
2023-03-12T15:01:22.324Z,51.86
2023-03-12T15:03:54.432Z,52.26
2023-03-12T15:06:36.633Z,52.24
2023-03-12T15:09:05.097Z,53.18
2023-03-12T15:11:33.821Z,55.91
2023-03-12T15:14:14.406Z,54.75
2023-03-12T15:16:42.438Z,54.83
2023-03-12T15:19:18.770Z,55.35
2023-03-12T15:21:46.193Z,55.17
2023-03-12T15:24:13.941Z,56.44
2023-03-12T15:26:41.426Z,54.71
2023-03-12T15:29:13.960Z,56.55
2023-03-12T15:31:45.843Z,57.78
2023-03-12T15:34:27.744Z,59.54
2023-03-12T15:36:54.935Z,59.90
2023-03-12T15:39:26.632Z,60.92
2023-03-12T15:41:54.378Z,63.20
2023-03-12T15:44:23.574Z,65.17
2023-03-12T15:47:10.830Z,64.44
2023-03-12T15:49:38.789Z,67.70
2023-03-12T15:52:26.609Z,67.60
2023-03-12T15:55:01.623Z,70.91
2023-03-12T15:57:28.815Z,71.91
2023-03-12T16:00:13.687Z,70.67
2023-03-12T16:02:51.588Z,72.11
2023-03-12T16:05:20.120Z,72.35
2023-03-12T16:07:46.807Z,73.98
2023-03-12T16:10:15.329Z,76.90
2023-03-12T16:12:42.615Z,75.33
2023-03-12T16:18:39.014Z,72.20
2023-03-12T16:21:05.809Z,69.39
2023-03-12T16:23:32.514Z,69.06
2023-03-12T16:25:59.787Z,68.40
2023-03-12T16:28:26.515Z,67.49
2023-03-12T16:30:53.411Z,68.73
2023-03-12T16:33:22.184Z,70.60
2023-03-12T16:35:48.856Z,72.71
2023-03-12T16:38:15.554Z,73.39
2023-03-12T16:40:49.582Z,71.68
2023-03-12T16:43:22.102Z,72.39
2023-03-12T16:45:50.271Z,72.60
2023-03-12T16:48:24.104Z,73.87
2023-03-12T16:50:52.854Z,74.02
2023-03-12T16:53:19.934Z,73.98
2023-03-12T16:55:50.287Z,74.59
2023-03-12T16:58:18.782Z,75.50
2023-03-12T17:00:45.456Z,76.06
2023-03-12T17:03:18.835Z,78.42
2023-03-12T17:05:45.764Z,78.46
2023-03-12T17:08:14.160Z,80.22
2023-03-12T17:10:40.908Z,82.18
2023-03-12T17:13:07.503Z,81.99
2023-03-12T17:15:34.242Z,83.68
2023-03-12T17:18:03.546Z,85.96
2023-03-12T17:20:36.097Z,88.19
2023-03-12T17:23:03.717Z,89.66
2023-03-12T17:25:32.897Z,91.17
2023-03-12T17:27:59.767Z,91.70
2023-03-12T17:30:27.897Z,92.77
2023-03-12T17:33:01.175Z,94.50
2023-03-12T17:35:27.873Z,94.92
2023-03-12T17:37:54.516Z,96.33
2023-03-12T17:40:21.163Z,98.09
2023-03-12T17:42:47.819Z,97.66
2023-03-12T17:45:14.660Z,97.32
2023-03-12T17:47:41.500Z,99.50
2023-03-12T17:50:08.657Z,99.09
2023-03-12T17:52:35.455Z,100.00
2023-03-12T17:55:03.389Z,100.00
2023-03-12T17:57:30.457Z,100.00
2023-03-12T17:59:57.221Z,100.00
2023-03-12T18:02:24.725Z,100.00
2023-03-12T18:04:51.850Z,100.00
2023-03-12T18:07:18.683Z,100.00
2023-03-12T18:09:45.369Z,100.00
2023-03-12T18:12:12.501Z,100.00
2023-03-12T18:14:39.249Z,100.00
2023-03-12T18:17:05.954Z,100.00
2023-03-12T18:19:35.122Z,100.00
2023-03-12T18:22:01.993Z,100.00
2023-03-12T18:24:28.689Z,100.00
2023-03-12T18:26:55.324Z,100.00
2023-03-12T18:29:21.925Z,100.00
2023-03-12T18:31:48.870Z,100.00
2023-03-12T18:34:16.298Z,100.00
2023-03-12T20:44:50.480Z,100.00
2023-03-12T20:47:25.087Z,100.00
2023-03-12T20:49:51.765Z,100.00
2023-03-12T20:52:18.462Z,100.00
2023-03-12T20:54:45.069Z,100.00
2023-03-12T20:57:11.717Z,100.00
2023-03-12T20:59:38.281Z,100.00
2023-03-12T21:02:04.992Z,100.00
2023-03-12T21:04:31.569Z,100.00
2023-03-12T21:06:58.157Z,100.00
2023-03-12T21:09:24.729Z,100.00
2023-03-12T21:11:51.328Z,100.00
2023-03-12T21:14:17.965Z,100.00
2023-03-12T21:16:44.601Z,100.00
2023-03-12T21:19:11.210Z,100.00
2023-03-12T21:21:38.058Z,100.00
2023-03-12T21:24:04.890Z,100.00
2023-03-12T21:26:31.533Z,100.00
2023-03-12T21:28:58.145Z,100.00
2023-03-12T21:31:26.722Z,100.00
2023-03-12T21:33:57.931Z,100.00
2023-03-12T21:36:25.377Z,100.00
2023-03-12T21:38:52.205Z,100.00
2023-03-12T21:41:19.283Z,100.00
2023-03-12T21:43:46.907Z,100.00
2023-03-12T21:46:16.408Z,100.00
2023-03-12T21:48:44.455Z,100.00
2023-03-12T21:51:12.195Z,100.00
2023-03-12T21:53:38.919Z,100.00
2023-03-12T21:56:07.350Z,100.00
2023-03-12T21:58:34.447Z,100.00
2023-03-12T22:01:12.913Z,100.00
2023-03-12T22:03:40.602Z,100.00
2023-03-12T22:06:07.566Z,100.00
2023-03-12T22:08:34.776Z,100.00
2023-03-12T22:11:02.124Z,100.00
2023-03-12T22:13:29.309Z,100.00
2023-03-12T22:16:00.952Z,100.00
2023-03-12T22:18:28.303Z,100.00
2023-03-12T22:20:56.827Z,100.00
2023-03-12T22:23:24.128Z,100.00
2023-03-12T22:25:51.233Z,100.00
2023-03-12T22:28:18.179Z,100.00
2023-03-12T22:30:44.859Z,100.00
2023-03-12T22:33:11.801Z,100.00
2023-03-12T22:35:46.308Z,100.00
2023-03-12T22:38:12.955Z,100.00
2023-03-12T22:40:39.697Z,100.00
2023-03-12T22:43:06.640Z,100.00
2023-03-12T22:45:33.330Z,100.00
2023-03-12T22:48:00.348Z,100.00
2023-03-12T22:50:26.953Z,100.00
2023-03-12T22:52:53.701Z,100.00
2023-03-12T22:55:20.280Z,100.00
2023-03-12T22:57:46.891Z,100.00
2023-03-12T23:00:16.302Z,100.00
2023-03-12T23:02:42.994Z,100.00
2023-03-12T23:05:10.186Z,100.00
2023-03-12T23:07:37.130Z,100.00
2023-03-12T23:10:04.498Z,100.00
2023-03-12T23:12:31.209Z,100.00
2023-03-12T23:14:57.787Z,100.00
2023-03-12T23:17:24.416Z,100.00
2023-03-12T23:19:50.987Z,100.00
2023-03-12T23:22:17.573Z,100.00
2023-03-12T23:24:44.227Z,100.00
2023-03-12T23:27:10.813Z,100.00
2023-03-12T23:29:37.497Z,100.00
2023-03-12T23:32:04.730Z,100.00
2023-03-12T23:34:33.471Z,100.00
2023-03-12T23:37:00.196Z,100.00
2023-03-12T23:39:26.822Z,100.00
2023-03-12T23:41:53.403Z,100.00
2023-03-12T23:44:20.019Z,100.00
2023-03-12T23:46:46.854Z,100.00
2023-03-12T23:49:13.561Z,100.00
2023-03-12T23:51:42.970Z,100.00
2023-03-12T23:54:09.554Z,100.00
2023-03-12T23:56:38.247Z,100.00
2023-03-12T23:59:06.281Z,100.00
